Time;durP1;ratioP1;P1;durP2;ratioP2;P2;SDS_P1;SDS_P2;PMS_P1;PMS_P2;Temp;Humidity;BMP_temperature;BMP_pressure;BME280_temperature;BME280_humidity;BME280_pressure;Samples;Min_cycle;Max_cycle;Signal;HPM_P1;HPM_P2
2022/12/21 07:46:17;;;;;;;;;2.25;2.25;;;;;9.89;100.00;101228.59;5298713;23;51121;-74
2022/12/21 07:48:43;;;;;;;;;7.50;5.25;;;;;9.85;100.00;101234.59;4933625;28;50186;-62
2022/12/21 07:51:08;;;;;;;;;3.75;3.75;;;;;9.10;100.00;101127.38;4933787;28;50841;-64
2022/12/21 07:53:34;;;;;;;;;2.50;2.50;;;;;8.86;100.00;101055.84;4930682;28;49960;-63
2022/12/21 07:56:02;;;;;;;;;4.00;4.00;;;;;8.62;100.00;101042.00;4936079;28;49876;-68
2022/12/21 07:58:27;;;;;;;;;6.00;6.00;;;;;8.30;100.00;100984.22;4931936;28;50001;-62
2022/12/21 08:00:53;;;;;;;;;5.75;5.75;;;;;9.79;100.00;101262.34;4938989;28;51559;-70
2022/12/21 08:03:18;;;;;;;;;4.00;3.00;;;;;9.85;100.00;101228.47;4936959;28;49981;-63
2022/12/21 08:05:44;;;;;;;;;5.00;4.00;;;;;9.87;100.00;101225.03;4933934;28;49596;-62
2022/12/21 08:08:09;;;;;;;;;5.00;5.00;;;;;9.83;100.00;101203.91;4944143;28;49972;-62
2022/12/21 08:10:34;;;;;;;;;6.25;5.50;;;;;9.92;100.00;101228.66;4933527;28;49849;-62
2022/12/21 08:13:00;;;;;;;;;3.75;3.75;;;;;8.31;100.00;100939.81;4932720;28;49979;-62
2022/12/21 08:15:25;;;;;;;;;4.50;4.50;;;;;9.96;100.00;101216.56;4933299;28;49708;-62
2022/12/21 08:17:51;;;;;;;;;6.00;6.00;;;;;10.08;100.00;101226.53;4930863;28;49919;-66
2022/12/21 08:20:23;;;;;;;;;3.50;3.50;;;;;9.81;100.00;101174.13;4932031;28;50891;-73
2022/12/21 08:22:49;;;;;;;;;4.75;3.50;;;;;10.14;100.00;101232.88;4935494;28;49769;-64
2022/12/21 08:25:15;;;;;;;;;6.00;4.00;;;;;10.10;100.00;101212.59;4936878;28;49910;-70
2022/12/21 08:27:41;;;;;;;;;7.00;5.25;;;;;10.27;100.00;101244.63;4941537;28;49943;-64
2022/12/21 08:30:08;;;;;;;;;7.00;5.00;;;;;10.19;100.00;101204.13;4932492;28;50258;-63
2022/12/21 08:32:34;;;;;;;;;4.00;3.00;;;;;8.66;100.00;100928.69;4933213;28;50092;-63
2022/12/21 08:34:59;;;;;;;;;2.50;2.50;;;;;10.47;100.00;101211.09;4933411;28;49850;-62
2022/12/21 08:37:24;;;;;;;;;6.00;6.00;;;;;10.58;100.00;101204.41;4929567;28;49881;-64
2022/12/21 08:39:49;;;;;;;;;8.25;4.00;;;;;9.50;100.00;101036.00;4934865;28;49825;-62
2022/12/21 08:42:15;;;;;;;;;5.00;2.00;;;;;10.14;100.00;101119.16;4935868;28;54686;-62
2022/12/21 08:44:40;;;;;;;;;4.25;3.25;;;;;9.13;100.00;100951.09;4930017;28;49798;-63
2022/12/21 08:47:06;;;;;;;;;4.00;4.00;;;;;10.78;100.00;101242.59;4934422;28;49997;-62
2022/12/21 08:49:32;;;;;;;;;5.50;5.50;;;;;10.74;100.00;101227.63;4925907;28;50681;-62
2022/12/21 08:51:57;;;;;;;;;4.25;3.50;;;;;10.16;100.00;101109.59;4938848;28;49640;-62
2022/12/21 08:54:23;;;;;;;;;3.75;3.75;;;;;9.34;100.00;100985.75;4938969;28;49989;-62
2022/12/21 08:56:49;;;;;;;;;3.25;3.00;;;;;10.84;100.00;101213.00;4933358;28;50064;-63
2022/12/21 08:59:14;;;;;;;;;8.00;2.75;;;;;9.62;100.00;101007.53;4934778;28;50045;-63
2022/12/21 09:01:40;;;;;;;;;3.75;3.25;;;;;9.40;100.00;100964.09;4925826;28;49831;-64
2022/12/21 09:04:05;;;;;;;;;2.50;2.25;;;;;10.16;100.00;101091.22;4933331;28;49721;-62
2022/12/21 09:06:31;;;;;;;;;3.25;2.00;;;;;10.39;100.00;101103.25;4934420;28;49941;-61
2022/12/21 09:08:56;;;;;;;;;1.50;1.50;;;;;11.16;100.00;101219.97;4933075;28;50735;-63
2022/12/21 09:11:23;;;;;;;;;2.50;2.50;;;;;10.96;100.00;101162.53;4933044;28;50273;-69
2022/12/21 09:13:49;;;;;;;;;2.75;2.75;;;;;11.15;100.00;101205.06;4933224;28;49916;-67
2022/12/21 09:16:22;;;;;;;;;7.00;3.00;;;;;11.32;100.00;101213.38;4933246;28;49708;-82
2022/12/21 09:18:48;;;;;;;;;1.25;1.00;;;;;9.77;100.00;100939.81;4928828;28;49964;-62
2022/12/21 09:21:15;;;;;;;;;1.50;1.50;;;;;10.96;100.00;101144.13;4931365;28;49647;-61
2022/12/21 09:23:41;;;;;;;;;6.50;4.00;;;;;10.70;100.00;101099.69;4931195;28;49897;-63
2022/12/21 09:26:07;;;;;;;;;5.00;4.25;;;;;11.32;100.00;101197.59;4933601;28;50017;-61
2022/12/21 09:28:34;;;;;;;;;4.00;2.75;;;;;11.06;100.00;101159.28;4931539;28;51033;-61
2022/12/21 09:31:13;;;;;;;;;3.25;2.25;;;;;11.50;100.00;101233.09;4933156;28;49837;-68
2022/12/21 09:33:40;;;;;;;;;4.00;3.00;;;;;11.21;100.00;101174.53;4927105;28;49994;-73
2022/12/21 09:36:07;;;;;;;;;5.25;3.00;;;;;11.03;100.00;101144.34;4938828;28;49793;-62
2022/12/21 09:38:33;;;;;;;;;4.00;4.00;;;;;11.55;100.00;101221.81;4931396;28;50008;-63
2022/12/21 09:41:02;;;;;;;;;3.25;3.25;;;;;11.09;100.00;101151.47;4933363;28;50020;-62
2022/12/21 09:44:04;;;;;;;;;4.50;4.00;;;;;11.59;100.00;101249.09;4932734;28;50016;-72
2022/12/21 09:46:35;;;;;;;;;2.00;2.00;;;;;11.30;100.00;101185.28;4932052;28;49874;-77
2022/12/21 09:49:07;;;;;;;;;3.50;2.00;;;;;11.53;100.00;101234.03;4932201;28;49816;-71
2022/12/21 09:51:35;;;;;;;;;8.00;5.50;;;;;10.69;100.00;101112.78;4932203;28;49852;-69
2022/12/21 09:54:11;;;;;;;;;3.00;3.00;;;;;11.26;100.00;101213.22;4932107;28;49789;-69
2022/12/21 09:56:41;;;;;;;;;5.00;4.00;;;;;11.20;100.00;101168.41;4936608;28;50282;-76
2022/12/21 09:59:13;;;;;;;;;3.50;3.00;;;;;11.27;100.00;101177.31;4932431;28;50016;-64
2022/12/21 10:01:42;;;;;;;;;5.00;3.75;;;;;11.67;100.00;101247.50;4930507;28;49909;-77
2022/12/21 10:04:10;;;;;;;;;6.50;3.25;;;;;11.74;100.00;101254.72;4930893;28;49870;-63
2022/12/21 10:06:50;;;;;;;;;5.00;5.00;;;;;11.82;100.00;101262.81;4934402;28;50025;-77
2022/12/21 10:09:27;;;;;;;;;6.75;5.00;;;;;11.88;100.00;101271.75;4938446;28;50698;-67
2022/12/21 10:12:22;;;;;;;;;3.50;3.25;;;;;11.51;100.00;101198.94;4930597;28;49872;-64
2022/12/21 10:14:47;;;;;;;;;4.00;3.00;;;;;11.97;100.00;101261.44;4930315;28;49972;-77
2022/12/21 10:17:28;;;;;;;;;9.00;5.75;;;;;11.98;100.00;101252.69;4931834;28;49859;-67
2022/12/21 10:20:32;;;;;;;;;3.75;3.75;;;;;11.50;100.00;101189.28;4929262;28;51229;-63
2022/12/21 10:23:01;;;;;;;;;6.00;6.00;;;;;11.96;100.00;101221.91;4923243;28;50284;-65
2022/12/21 10:25:45;;;;;;;;;9.50;8.00;;;;;11.33;100.00;101101.25;4927073;28;50068;-68
2022/12/21 10:28:36;;;;;;;;;5.50;4.50;;;;;11.96;100.00;101217.53;4939949;28;49589;-63
2022/12/21 10:31:08;;;;;;;;;3.75;3.75;;;;;11.63;100.00;101151.88;4898430;28;50671;-81
2022/12/21 10:33:38;;;;;;;;;8.75;6.50;;;;;11.61;100.00;101147.47;4931972;28;49777;-81
2022/12/21 10:36:04;;;;;;;;;4.00;4.00;;;;;11.38;100.00;101107.47;4939144;28;49912;-66
2022/12/21 10:38:34;;;;;;;;;6.00;3.50;;;;;11.93;100.00;101191.16;4931177;28;49913;-64
2022/12/21 10:41:02;;;;;;;;;2.25;2.25;;;;;11.95;100.00;101185.94;4934245;28;49786;-69
2022/12/21 10:43:32;;;;;;;;;3.50;3.50;;;;;11.57;100.00;101114.94;4928332;28;49798;-67
2022/12/21 10:45:57;;;;;;;;;4.50;4.00;;;;;12.14;100.00;101190.75;4937242;28;49716;-76
2022/12/21 10:48:28;;;;;;;;;6.00;5.00;;;;;11.85;100.00;101126.97;4929355;28;49758;-77
2022/12/21 10:51:04;;;;;;;;;4.75;2.75;;;;;11.29;100.00;101029.34;4933531;28;50947;-76
2022/12/21 10:53:30;;;;;;;;;5.50;5.50;;;;;11.73;100.00;101103.91;4929044;28;49877;-64
2022/12/21 10:55:59;;;;;;;;;8.00;5.00;;;;;12.08;100.00;101145.91;4929077;28;49826;-63
2022/12/21 10:58:31;;;;;;;;;4.50;4.00;;;;;12.27;100.00;101174.38;4931591;28;49860;-65
2022/12/21 11:01:01;;;;;;;;;6.00;6.00;;;;;12.00;100.00;101121.16;4926692;28;51423;-69
2022/12/21 11:03:36;;;;;;;;;5.50;4.25;;;;;11.47;100.00;101040.22;4930542;28;49820;-63
2022/12/21 11:06:30;;;;;;;;;2.50;2.50;;;;;12.39;100.00;101194.78;4928274;28;50012;-68
2022/12/21 11:08:57;;;;;;;;;8.00;6.00;;;;;12.10;100.00;101116.97;4916559;28;50296;-61
2022/12/21 11:11:30;;;;;;;;;5.75;5.00;;;;;12.35;100.00;101150.81;4926542;28;50802;-65
2022/12/21 11:14:00;;;;;;;;;6.00;6.00;;;;;12.02;100.00;101091.38;4930898;28;49829;-66
2022/12/21 11:16:31;;;;;;;;;6.50;4.25;;;;;11.87;100.00;101061.22;4929211;28;49890;-65
2022/12/21 11:19:01;;;;;;;;;5.75;5.00;;;;;12.10;100.00;101082.75;4930816;28;49989;-63
2022/12/21 11:21:52;;;;;;;;;5.75;5.75;;;;;12.46;100.00;101146.66;4930760;28;50342;-66
2022/12/21 11:24:34;;;;;;;;;11.50;9.25;;;;;12.53;100.00;101135.34;4930486;28;49868;-62
2022/12/21 11:27:04;;;;;;;;;2.25;2.25;;;;;12.66;100.00;101138.25;4926327;28;49877;-72
2022/12/21 11:29:33;;;;;;;;;6.50;5.50;;;;;12.77;100.00;101131.41;4927395;28;50084;-62
2022/12/21 11:32:07;;;;;;;;;5.00;4.75;;;;;12.65;100.00;101092.59;4926938;28;49869;-64
2022/12/21 11:34:44;;;;;;;;;10.00;7.75;;;;;12.90;100.00;101122.84;4930570;28;49817;-64
2022/12/21 11:37:38;;;;;;;;;8.75;6.75;;;;;12.89;100.00;101121.97;4928250;28;49989;-63
2022/12/21 11:40:18;;;;;;;;;4.75;3.50;;;;;12.94;100.00;101116.78;4931177;28;49793;-62
2022/12/21 11:43:05;;;;;;;;;8.75;6.25;;;;;12.91;100.00;101106.19;4923182;28;51443;-63
2022/12/21 11:45:49;;;;;;;;;4.75;3.75;;;;;12.92;100.00;101102.69;4930049;28;49688;-62
2022/12/21 11:48:33;;;;;;;;;4.00;4.00;;;;;12.91;100.00;101103.53;4933648;28;49809;-63
2022/12/21 11:51:20;;;;;;;;;5.75;5.75;;;;;12.92;100.00;101092.13;4944211;28;49992;-67
2022/12/21 11:53:54;;;;;;;;;7.25;5.50;;;;;12.79;100.00;101059.44;4930596;28;50412;-64
2022/12/21 11:56:44;;;;;;;;;4.00;4.00;;;;;12.82;100.00;101074.41;4934978;28;49698;-62
2022/12/21 11:59:22;;;;;;;;;5.50;4.00;;;;;12.87;100.00;101084.19;4930551;28;49635;-63
2022/12/21 12:02:06;;;;;;;;;5.25;4.00;;;;;12.95;100.00;101076.41;4930847;28;49710;-65
2022/12/21 12:04:50;;;;;;;;;4.75;4.50;;;;;13.00;100.00;101069.44;4949109;28;50767;-76
2022/12/21 12:07:27;;;;;;;;;6.00;4.00;;;;;13.09;100.00;101069.59;4948618;28;49402;-70
2022/12/21 12:09:52;;;;;;;;;4.00;4.00;;;;;13.17;100.00;101054.78;4935851;28;49817;-69
2022/12/21 12:12:32;;;;;;;;;5.50;4.25;;;;;13.11;100.00;101046.75;4933923;28;50140;-70
2022/12/21 12:15:26;;;;;;;;;4.00;4.00;;;;;13.17;100.00;101036.31;4936493;28;51354;-72
2022/12/21 12:18:19;;;;;;;;;6.00;6.00;;;;;13.23;100.00;101051.38;4925023;28;49843;-77
2022/12/21 12:21:09;;;;;;;;;6.25;4.75;;;;;13.21;100.00;101047.81;4933513;28;49782;-70
2022/12/21 12:23:37;;;;;;;;;6.00;6.00;;;;;13.19;100.00;101041.66;4932979;28;50100;-76
2022/12/21 12:26:42;;;;;;;;;9.00;3.25;;;;;13.16;100.00;101038.94;4948076;28;49502;-72
2022/12/21 12:29:39;;;;;;;;;4.25;4.25;;;;;13.14;100.00;101044.19;4921522;28;49814;-68
2022/12/21 12:32:13;;;;;;;;;8.50;5.50;;;;;13.17;100.00;101048.63;4937979;28;50455;-74
2022/12/21 12:35:18;;;;;;;;;9.00;7.00;;;;;13.06;100.00;101021.22;4945781;28;49917;-76
2022/12/21 12:38:07;;;;;;;;;5.75;5.75;;;;;13.16;100.00;101031.91;4940197;28;50252;-72
2022/12/21 12:40:40;;;;;;;;;6.25;5.00;;;;;13.07;100.00;100997.53;4932209;28;49813;-72
2022/12/21 12:43:43;;;;;;;;;7.25;6.25;;;;;13.15;100.00;101019.59;4930312;28;49778;-78
2022/12/21 12:46:27;;;;;;;;;5.50;5.00;;;;;13.19;100.00;101002.09;4940303;28;49812;-68
2022/12/21 12:49:23;;;;;;;;;5.00;4.75;;;;;13.24;100.00;101008.34;4937671;28;51826;-82
2022/12/21 12:52:14;;;;;;;;;7.50;5.50;;;;;13.18;100.00;100984.47;4939310;28;49804;-70
2022/12/21 12:55:01;;;;;;;;;8.00;8.00;;;;;13.23;100.00;100995.16;4934866;28;49937;-62
2022/12/21 12:57:45;;;;;;;;;5.00;5.00;;;;;13.17;100.00;100978.31;4923714;28;49718;-67
2022/12/21 13:00:18;;;;;;;;;8.00;4.00;;;;;13.17;100.00;100988.88;4932307;28;51098;-79
2022/12/21 13:02:51;;;;;;;;;4.00;3.00;;;;;13.03;100.00;100968.47;4925638;28;50148;-72
2022/12/21 13:05:28;;;;;;;;;5.00;5.00;;;;;12.84;100.00;100936.59;4932219;28;49903;-71
2022/12/21 13:08:06;;;;;;;;;3.50;2.50;;;;;12.81;100.00;100941.78;4933001;28;50074;-65
2022/12/21 13:10:42;;;;;;;;;3.50;3.50;;;;;13.01;100.00;100971.06;4925319;28;49812;-66
2022/12/21 13:13:17;;;;;;;;;4.25;2.75;;;;;12.94;100.00;100974.50;4932144;28;49691;-74
2022/12/21 13:15:55;;;;;;;;;4.75;4.00;;;;;12.30;100.00;100874.31;4931141;28;49965;-64
2022/12/21 13:18:25;;;;;;;;;5.00;4.00;;;;;12.53;100.00;100903.63;4931722;28;49953;-70
2022/12/21 13:20:55;;;;;;;;;4.25;3.00;;;;;12.79;100.00;100943.53;4931620;28;50414;-81
2022/12/21 13:23:58;;;;;;;;;3.50;2.50;;;;;12.75;100.00;100933.81;4927931;28;49847;-74
2022/12/21 13:26:29;;;;;;;;;2.00;2.00;;;;;12.78;100.00;100938.25;4923997;28;49975;-69
2022/12/21 13:29:10;;;;;;;;;2.00;2.00;;;;;12.76;100.00;100927.69;4928361;28;49873;-63
2022/12/21 13:31:44;;;;;;;;;5.00;4.00;;;;;12.59;100.00;100898.47;4935173;28;50560;-65
2022/12/21 13:34:18;;;;;;;;;1.75;1.75;;;;;12.57;100.00;100902.81;4924553;28;49880;-61
2022/12/21 13:36:45;;;;;;;;;4.25;2.25;;;;;12.14;100.00;100826.69;4925924;28;49929;-62
2022/12/21 13:39:19;;;;;;;;;4.25;2.50;;;;;12.67;100.00;100917.00;4921267;28;50079;-61
2022/12/21 13:41:50;;;;;;;;;2.75;2.75;;;;;12.59;100.00;100919.53;4927308;28;50397;-62
2022/12/21 13:44:23;;;;;;;;;3.00;2.00;;;;;12.59;100.00;100919.53;4932988;28;49808;-62
2022/12/21 13:46:51;;;;;;;;;2.50;1.00;;;;;12.58;100.00;100925.66;4935922;28;50064;-61
2022/12/21 13:49:50;;;;;;;;;4.75;4.00;;;;;12.59;100.00;100916.00;4947857;28;49695;-63
2022/12/21 13:52:26;;;;;;;;;2.75;2.75;;;;;12.47;100.00;100900.91;4927785;28;49936;-63
2022/12/21 13:54:58;;;;;;;;;3.75;2.25;;;;;12.61;100.00;100911.66;4927682;28;49798;-66
2022/12/21 13:57:27;;;;;;;;;2.75;2.75;;;;;12.63;100.00;100902.00;4930309;28;50770;-62
2022/12/21 14:00:07;;;;;;;;;3.00;3.00;;;;;12.60;100.00;100901.97;4930321;28;50195;-62
2022/12/21 14:02:51;;;;;;;;;4.00;3.00;;;;;12.57;100.00;100894.03;4931623;28;51329;-62
2022/12/21 14:05:28;;;;;;;;;5.00;3.25;;;;;12.55;100.00;100895.78;4936686;28;49761;-65
2022/12/21 14:08:14;;;;;;;;;3.00;3.00;;;;;12.58;100.00;100885.28;4936759;28;49643;-67
2022/12/21 14:11:17;;;;;;;;;3.75;1.75;;;;;12.53;100.00;100879.03;4946738;28;49574;-62
2022/12/21 14:14:07;;;;;;;;;5.00;4.00;;;;;12.51;100.00;100884.28;4931308;28;50680;-61
2022/12/21 14:16:35;;;;;;;;;2.75;2.75;;;;;12.46;100.00;100864.91;4928010;28;49691;-62
2022/12/21 14:19:12;;;;;;;;;5.00;3.25;;;;;12.46;100.00;100867.56;4929074;28;49840;-62
2022/12/21 14:21:45;;;;;;;;;2.00;2.00;;;;;12.13;100.00;100810.00;4930808;28;49910;-62
2022/12/21 14:24:21;;;;;;;;;1.75;1.75;;;;;12.50;100.00;100871.09;4930352;28;50481;-62
2022/12/21 14:27:08;;;;;;;;;3.75;2.75;;;;;12.57;100.00;100880.88;4930143;28;49886;-62
2022/12/21 14:29:40;;;;;;;;;2.00;2.00;;;;;12.56;100.00;100881.75;4927533;28;49787;-62
2022/12/21 14:32:15;;;;;;;;;2.75;2.75;;;;;12.54;100.00;100873.78;4930896;28;49874;-62
2022/12/21 14:34:49;;;;;;;;;2.50;2.00;;;;;12.55;100.00;100861.53;4930116;28;49741;-64
2022/12/21 14:37:14;;;;;;;;;2.50;2.50;;;;;12.55;100.00;100858.91;4924427;28;50055;-63
2022/12/21 14:39:45;;;;;;;;;2.50;2.00;;;;;12.52;100.00;100859.72;4930009;28;50178;-62
2022/12/21 14:42:41;;;;;;;;;2.75;2.00;;;;;12.56;100.00;100852.78;4927576;28;49928;-62
2022/12/21 14:45:09;;;;;;;;;2.75;1.00;;;;;12.56;100.00;100853.66;4930248;28;49806;-62
2022/12/21 14:47:39;;;;;;;;;2.00;2.00;;;;;12.49;100.00;100836.00;4927291;28;49862;-61
2022/12/21 14:50:37;;;;;;;;;2.50;1.75;;;;;12.26;100.00;100795.31;4931636;28;49980;-62
2022/12/21 14:53:12;;;;;;;;;1.00;1.00;;;;;12.54;100.00;100842.19;4919943;28;49968;-62
2022/12/21 14:55:40;;;;;;;;;3.50;2.00;;;;;12.55;100.00;100840.47;4925515;28;49963;-61
2022/12/21 14:58:20;;;;;;;;;2.75;1.75;;;;;12.45;100.00;100826.28;4931594;28;49888;-61
2022/12/21 15:01:13;;;;;;;;;2.00;2.00;;;;;12.53;100.00;100850.06;4929650;28;49778;-61
2022/12/21 15:03:43;;;;;;;;;4.00;2.75;;;;;12.24;100.00;100799.63;4932343;28;50118;-61
2022/12/21 15:06:11;;;;;;;;;1.25;1.25;;;;;12.55;100.00;100829.94;4929181;28;50419;-61
2022/12/21 15:08:45;;;;;;;;;2.00;2.00;;;;;12.36;100.00;100815.63;4931358;28;49850;-62
2022/12/21 15:11:23;;;;;;;;;2.00;2.00;;;;;11.81;100.00;100730.59;4931657;28;49772;-62
2022/12/21 15:13:55;;;;;;;;;2.00;2.00;;;;;12.15;100.00;100754.75;4926423;28;50195;-62
2022/12/21 15:16:26;;;;;;;;;3.75;2.75;;;;;12.59;100.00;100829.09;4931155;28;51126;-62
2022/12/21 15:18:57;;;;;;;;;2.75;2.75;;;;;12.59;100.00;100822.09;4931380;28;49734;-60
2022/12/21 15:21:25;;;;;;;;;2.00;2.00;;;;;12.55;100.00;100822.94;4931504;28;49793;-60
2022/12/21 15:23:55;;;;;;;;;2.00;2.00;;;;;12.54;100.00;100820.25;4931592;28;49753;-65
2022/12/21 15:26:29;;;;;;;;;1.75;1.75;;;;;12.50;100.00;100816.69;4925286;28;49846;-65
2022/12/21 15:28:58;;;;;;;;;2.00;2.00;;;;;12.53;100.00;100813.22;4930341;28;50009;-62
2022/12/21 15:31:32;;;;;;;;;1.50;1.50;;;;;12.53;100.00;100811.47;4930667;28;49806;-62
2022/12/21 15:34:09;;;;;;;;;1.00;1.00;;;;;12.35;100.00;100782.25;4931340;28;49642;-63
2022/12/21 15:36:37;;;;;;;;;1.75;1.50;;;;;12.56;100.00;100795.72;4931790;28;51505;-62
2022/12/21 15:39:06;;;;;;;;;1.00;1.00;;;;;12.01;100.00;100697.56;4934674;28;49912;-65
2022/12/21 15:41:44;;;;;;;;;3.75;1.75;;;;;12.48;100.00;100764.88;4934544;28;49753;-66
2022/12/21 15:44:27;;;;;;;;;2.00;2.00;;;;;12.57;100.00;100778.16;4929786;28;50014;-65
2022/12/21 15:47:17;;;;;;;;;3.75;2.50;;;;;12.36;100.00;100734.03;4929978;28;50494;-65
2022/12/21 15:50:11;;;;;;;;;3.00;3.00;;;;;12.59;100.00;100782.59;4933954;28;49990;-63
2022/12/21 15:52:47;;;;;;;;;1.25;1.25;;;;;12.58;100.00;100778.19;4928768;28;49889;-67
2022/12/21 15:55:16;;;;;;;;;2.75;2.75;;;;;12.48;100.00;100768.41;4934403;28;50260;-63
2022/12/21 15:57:45;;;;;;;;;1.75;1.25;;;;;12.14;100.00;100719.66;4932237;28;49904;-64
2022/12/21 16:00:16;;;;;;;;;2.00;1.50;;;;;12.39;100.00;100757.75;4931579;28;49825;-63
2022/12/21 16:02:44;;;;;;;;;2.75;1.25;;;;;12.23;100.00;100727.69;4931194;28;49867;-65
2022/12/21 16:05:19;;;;;;;;;0.50;0.50;;;;;12.61;100.00;100777.34;4934339;28;49886;-66
2022/12/21 16:07:47;;;;;;;;;1.00;1.00;;;;;12.66;100.00;100767.75;4933852;28;49676;-65
2022/12/21 16:10:19;;;;;;;;;1.00;1.00;;;;;12.61;100.00;100765.03;4934182;28;49679;-64
2022/12/21 16:12:45;;;;;;;;;1.00;1.00;;;;;12.49;100.00;100741.19;4934118;28;49691;-73
2022/12/21 16:15:35;;;;;;;;;3.50;2.75;;;;;12.29;100.00;100700.59;4931779;28;50008;-72
2022/12/21 16:18:31;;;;;;;;;1.50;1.50;;;;;12.74;100.00;100778.34;4932317;28;52877;-68
2022/12/21 16:20:59;;;;;;;;;3.00;3.00;;;;;12.78;100.00;100774.91;4934066;28;50568;-67
2022/12/21 16:23:31;;;;;;;;;2.00;2.00;;;;;12.78;100.00;100769.66;4933847;28;50449;-67
2022/12/21 16:25:57;;;;;;;;;4.50;2.75;;;;;12.81;100.00;100748.59;4934061;28;50005;-66
2022/12/21 16:28:26;;;;;;;;;3.00;3.00;;;;;12.66;100.00;100706.28;4933719;28;49713;-65
2022/12/21 16:30:59;;;;;;;;;2.50;2.25;;;;;12.65;100.00;100686.97;4933376;28;49623;-65
2022/12/21 16:33:26;;;;;;;;;3.75;2.50;;;;;12.40;100.00;100629.63;4932598;28;49703;-67
2022/12/21 16:35:59;;;;;;;;;2.25;1.50;;;;;12.79;100.00;100700.28;4933932;28;49604;-67
2022/12/21 16:38:33;;;;;;;;;2.00;2.00;;;;;12.65;100.00;100672.94;4933687;28;50904;-69
2022/12/21 16:41:01;;;;;;;;;4.50;2.75;;;;;11.88;100.00;100568.50;4927185;28;49707;-71
2022/12/21 16:43:27;;;;;;;;;2.00;2.00;;;;;12.38;100.00;100623.47;4933414;28;50060;-70
2022/12/21 16:45:52;;;;;;;;;2.00;2.00;;;;;12.88;100.00;100703.91;4933215;28;49784;-68
2022/12/21 16:48:23;;;;;;;;;2.25;2.25;;;;;12.42;100.00;100625.25;4932955;28;49803;-72
2022/12/21 16:50:57;;;;;;;;;2.25;2.25;;;;;12.89;100.00;100696.88;4933559;28;49971;-67
2022/12/21 16:53:38;;;;;;;;;2.00;2.00;;;;;12.87;100.00;100699.50;4934096;28;49972;-63
2022/12/21 16:56:15;;;;;;;;;2.00;2.00;;;;;12.88;100.00;100689.84;4933800;28;49790;-64
2022/12/21 16:58:53;;;;;;;;;2.25;2.25;;;;;12.72;100.00;100667.72;4933790;28;49667;-67
2022/12/21 17:01:22;;;;;;;;;2.50;2.50;;;;;12.88;100.00;100689.84;4932947;28;49794;-74
2022/12/21 17:04:16;;;;;;;;;2.00;2.00;;;;;12.95;100.00;100731.22;4926221;28;50246;-71
2022/12/21 17:06:44;;;;;;;;;2.50;2.50;;;;;12.97;100.00;100707.50;4925148;28;50310;-68
2022/12/21 17:09:32;;;;;;;;;1.00;1.00;;;;;12.16;100.00;100567.06;4933089;28;50345;-68
2022/12/21 17:12:17;;;;;;;;;3.00;1.75;;;;;12.43;100.00;100604.22;4933018;28;49957;-73
2022/12/21 17:14:43;;;;;;;;;1.00;1.00;;;;;12.86;100.00;100681.94;4932707;28;49978;-69
2022/12/21 17:17:17;;;;;;;;;2.00;2.00;;;;;12.98;100.00;100691.69;4933368;28;50374;-69
2022/12/21 17:20:05;;;;;;;;;1.75;1.75;;;;;12.99;100.00;100698.75;4927517;28;49726;-71
2022/12/21 17:22:32;;;;;;;;;2.00;1.00;;;;;12.76;100.00;100689.72;4932853;28;49945;-75
2022/12/21 17:25:18;;;;;;;;;2.00;1.50;;;;;12.51;100.00;100609.56;4932910;28;49748;-69
2022/12/21 17:27:53;;;;;;;;;3.00;3.00;;;;;12.03;100.00;100542.38;4933310;28;49879;-70
2022/12/21 17:30:23;;;;;;;;;3.75;3.00;;;;;12.99;100.00;100722.47;4932453;28;49944;-73
2022/12/21 17:32:50;;;;;;;;;2.75;2.00;;;;;12.89;100.00;100660.88;4932727;28;49992;-72
2022/12/21 17:35:17;;;;;;;;;3.50;2.00;;;;;11.76;100.00;100474.50;4932669;28;49703;-73
2022/12/21 17:37:44;;;;;;;;;1.75;1.75;;;;;12.20;100.00;100563.59;4931382;28;49869;-74
2022/12/21 17:40:14;;;;;;;;;1.00;1.00;;;;;12.94;100.00;100663.56;4926796;28;50021;-71
2022/12/21 17:42:40;;;;;;;;;2.00;2.00;;;;;13.04;100.00;100665.44;4932215;28;49790;-70
2022/12/21 17:45:06;;;;;;;;;1.25;1.00;;;;;12.87;100.00;100659.09;4932089;28;50207;-70
2022/12/21 17:47:31;;;;;;;;;2.00;1.00;;;;;12.19;100.00;100567.09;4932751;28;49821;-70
2022/12/21 17:49:58;;;;;;;;;2.00;1.00;;;;;13.15;100.00;100720.88;4932516;28;50560;-71
2022/12/21 17:52:24;;;;;;;;;1.75;1.75;;;;;12.93;100.00;100645.97;4932818;28;49861;-70
2022/12/21 17:54:50;;;;;;;;;4.00;4.00;;;;;11.69;100.00;100447.28;4926043;28;49946;-71
2022/12/21 17:57:15;;;;;;;;;0.00;0.00;;;;;11.97;100.00;100498.47;4932767;28;49864;-78
2022/12/21 17:59:41;;;;;;;;;4.25;2.25;;;;;13.13;100.00;100675.16;4931175;28;50717;-73
2022/12/21 18:02:17;;;;;;;;;1.25;1.25;;;;;13.14;100.00;100663.75;4932490;28;49797;-75
2022/12/21 18:04:52;;;;;;;;;2.00;2.00;;;;;12.58;100.00;100591.22;4926684;28;49995;-71
2022/12/21 18:07:17;;;;;;;;;3.50;2.00;;;;;11.90;100.00;100446.66;4932711;28;49961;-71
2022/12/21 18:09:42;;;;;;;;;2.00;2.00;;;;;12.11;100.00;100474.91;4932184;28;50434;-75
2022/12/21 18:12:11;;;;;;;;;1.75;1.75;;;;;12.33;100.00;100539.16;4932492;28;50324;-70
2022/12/21 18:14:37;;;;;;;;;1.25;1.25;;;;;12.37;100.00;100522.56;4926774;28;49658;-74
2022/12/21 18:17:02;;;;;;;;;2.00;2.00;;;;;13.21;100.00;100664.69;4930787;28;49786;-77
2022/12/21 18:19:28;;;;;;;;;3.25;3.25;;;;;13.08;100.00;100629.44;4936490;28;49819;-76
2022/12/21 18:21:53;;;;;;;;;2.50;2.00;;;;;12.97;100.00;100631.97;4936476;28;50419;-75
2022/12/21 18:24:18;;;;;;;;;3.00;3.00;;;;;13.27;100.00;100648.94;4937007;28;50102;-67
2022/12/21 18:26:44;;;;;;;;;4.00;3.00;;;;;12.97;100.00;100624.06;4933708;28;50070;-76
2022/12/21 18:29:16;;;;;;;;;3.00;2.75;;;;;13.03;100.00;100605.69;4937003;28;50404;-65
2022/12/21 18:31:44;;;;;;;;;3.00;2.00;;;;;13.23;100.00;100634.88;4932129;28;49703;-64
2022/12/21 18:34:13;;;;;;;;;1.50;1.50;;;;;13.33;100.00;100647.25;4931761;28;49802;-65
2022/12/21 18:36:39;;;;;;;;;2.50;2.50;;;;;13.28;100.00;100637.53;4931957;28;49750;-67
2022/12/21 18:39:08;;;;;;;;;2.50;2.50;;;;;13.33;100.00;100641.09;4930965;28;50853;-67
2022/12/21 18:41:33;;;;;;;;;1.25;1.25;;;;;12.99;100.00;100585.44;4951638;28;49862;-68
2022/12/21 18:43:59;;;;;;;;;2.50;2.50;;;;;13.33;100.00;100635.81;4949353;28;49557;-64
2022/12/21 18:46:31;;;;;;;;;4.25;1.50;;;;;13.01;100.00;100586.31;4949257;28;49646;-71
2022/12/21 18:49:04;;;;;;;;;1.00;1.00;;;;;12.78;100.00;100548.38;4948726;28;49915;-67
2022/12/21 18:51:33;;;;;;;;;3.50;2.00;;;;;13.29;100.00;100637.53;4948377;28;49823;-68
2022/12/21 18:53:58;;;;;;;;;2.25;2.00;;;;;13.26;100.00;100639.28;4939954;28;49789;-64
2022/12/21 18:56:28;;;;;;;;;1.25;1.25;;;;;13.19;100.00;100633.06;4931650;28;50106;-65
2022/12/21 18:58:54;;;;;;;;;1.50;1.50;;;;;12.06;100.00;100407.31;4929347;28;53022;-65
2022/12/21 19:01:23;;;;;;;;;2.00;2.00;;;;;13.17;100.00;100585.56;4931886;28;49940;-65
2022/12/21 19:03:50;;;;;;;;;4.00;3.00;;;;;13.21;100.00;100604.06;4931307;28;49955;-64
2022/12/21 19:06:16;;;;;;;;;1.25;1.25;;;;;12.79;100.00;100529.94;4931034;28;50049;-65
2022/12/21 19:08:48;;;;;;;;;1.00;1.00;;;;;13.14;100.00;100590.84;4930855;28;50060;-67
2022/12/21 19:11:19;;;;;;;;;1.25;1.00;;;;;13.26;100.00;100599.72;4933040;28;49884;-71
2022/12/21 19:13:46;;;;;;;;;2.00;2.00;;;;;13.16;100.00;100596.13;4929051;28;49828;-68
2022/12/21 19:16:24;;;;;;;;;1.75;1.75;;;;;13.22;100.00;100608.47;4950651;28;50095;-70
2022/12/21 19:18:50;;;;;;;;;5.25;3.00;;;;;13.21;100.00;100596.16;4935025;28;50387;-66
2022/12/21 19:21:28;;;;;;;;;2.50;2.25;;;;;13.18;100.00;100592.59;4946729;28;49837;-64
2022/12/21 19:23:57;;;;;;;;;4.25;2.50;;;;;13.14;100.00;100593.47;4950778;28;49616;-64
2022/12/21 19:26:28;;;;;;;;;4.25;4.00;;;;;13.25;100.00;100608.50;4946498;28;49544;-65
2022/12/21 19:28:54;;;;;;;;;4.00;3.50;;;;;13.25;100.00;100595.34;4948415;28;49854;-65
2022/12/21 19:31:20;;;;;;;;;4.00;4.00;;;;;13.17;100.00;100589.97;4946168;28;49710;-68